Airfield :
LOGIN :

Register | Disclaimer

   EN    FR    IT 

 










Legend :    VFR   Marginal VFR   IFR   Intensive IFR   Very Intensive IFR
Visi :
Ceiling :
>= 8 km
>= 3000ft
5 to 8 km
1000 to 3000 ft
1500m to 5 km
500 to 1000 ft
800 to 1500m
200 to 500 ft
< 800m
< 200 ft
Symbols :   Thunderstorms  Fog  Heavy snow  Heavy precipitations  Wind > 20 kt
SIGMETs :     Misc.  Thunderstorms  Icing  Turbulence  Mountain Waves  Volcanic Ashes






- Airport Elevation : 915 ft
- IATA code : LUG


LSZA - Lugano

CURRENT METAR :
  • 291050Z AUTO 02004KT 350V080 9999 SCT046CB BKN055 15/12 Q0999

EXPIRED METARs :
  • 291020Z AUTO 02006KT 350V060 9999 -RA SCT031 BKN035 BKN039 14/12 Q0999
  • 290950Z VRB01KT 9999 -RA SCT030 BKN067 14/13 Q1000
  • 290920Z VRB01KT 9999 -RA SCT040 BKN067 14/11 Q1000
  • 290850Z VRB01KT 9999 -RA FEW027 SCT030 BKN045 15/11 Q0999
  • 290820Z VRB01KT 9999 VCSH FEW028 SCT040 OVC070 14/10 Q0999

TAF TAF LSZA
Valid from the 29 at 09:00 until the 29 at 18:00 UTC


290825Z 2909/2918 VRB02KT 9999 SCT040 BKN060
TEMPO 2909/2918 SHRA BKN030
ATIS : +41 22 417 40 88



MET'MAP, your aeronautical weather chart ! - Copyright ORBIFLY December 2007 - Disclaimer

ORBIFLY MET'MAP TEAM :

Programming & Development : Alexandra Zaïnal
Original concept : Baudouin d'Aumeries
Technical & hardware support : Manuel Goepfert
Assistance : Marc-Olivier Méhu




SOURCES & CREDITS :

   NOAA